Time;durP1;ratioP1;P1;durP2;ratioP2;P2;SDS_P1;SDS_P2;PMS_P1;PMS_P2;Temp;Humidity;BMP_temperature;BMP_pressure;BME280_temperature;BME280_humidity;BME280_pressure;Samples;Min_cycle;Max_cycle;Signal;HPM_P1;HPM_P2
2023/04/01 00:02:07;;;;;;;2.40;1.60;;;17.20;66.00;18.00;98630.00;;;;5008753;28;20209;-59
2023/04/01 00:04:33;;;;;;;1.80;1.47;;;17.10;65.90;18.00;98623.00;;;;5008725;28;20262;-59
2023/04/01 00:07:00;;;;;;;1.40;1.30;;;17.10;65.90;18.00;98620.00;;;;5008899;28;20267;-57
2023/04/01 00:09:25;;;;;;;2.87;1.60;;;17.10;65.90;18.00;98620.00;;;;5008052;28;20365;-59
2023/04/01 00:11:51;;;;;;;1.37;1.20;;;17.10;65.90;18.00;98626.00;;;;5008625;28;20633;-59
2023/04/01 00:14:17;;;;;;;2.50;1.40;;;17.10;66.00;18.00;98624.00;;;;5008248;28;20668;-59
2023/04/01 00:16:43;;;;;;;1.27;1.00;;;17.10;65.90;18.00;98628.00;;;;5008649;28;20177;-58
2023/04/01 00:19:08;;;;;;;2.17;1.43;;;17.10;66.00;18.00;98631.00;;;;5007481;28;20567;-58
2023/04/01 00:21:34;;;;;;;1.70;1.10;;;17.10;65.90;18.00;98635.00;;;;5008372;28;20303;-58
2023/04/01 00:24:00;;;;;;;1.63;1.20;;;17.10;66.00;18.00;98632.00;;;;5008262;28;20202;-58
2023/04/01 00:26:26;;;;;;;1.30;1.20;;;17.10;65.90;18.00;98626.00;;;;5008459;28;20218;-58
2023/04/01 00:28:52;;;;;;;1.20;1.07;;;17.10;65.90;17.90;98622.00;;;;5008421;28;20248;-58
2023/04/01 00:31:17;;;;;;;1.23;1.13;;;17.00;65.80;17.90;98621.00;;;;5008409;28;20671;-58
2023/04/01 00:33:43;;;;;;;2.37;1.57;;;17.00;65.90;17.90;98612.00;;;;5006857;28;20197;-58
2023/04/01 00:36:14;;;;;;;1.57;1.27;;;17.00;65.70;17.90;98621.00;;;;5008232;28;20171;-57
2023/04/01 00:38:41;;;;;;;2.30;1.40;;;17.00;65.80;17.90;98619.00;;;;5008555;28;20195;-57
2023/04/01 00:41:07;;;;;;;1.33;1.23;;;17.00;65.70;17.90;98618.00;;;;5008473;28;20184;-59
2023/04/01 00:43:33;;;;;;;1.23;1.13;;;17.00;65.70;17.90;98614.00;;;;5008254;28;20258;-58
2023/04/01 00:45:59;;;;;;;1.20;1.10;;;17.00;65.70;17.90;98611.00;;;;5008506;28;20182;-57
2023/04/01 00:48:33;;;;;;;1.43;1.17;;;17.00;65.70;17.90;98626.00;;;;5008280;28;20572;-58
2023/04/01 00:51:27;;;;;;;0.90;0.90;;;17.00;65.80;17.90;98616.00;;;;5006606;28;20178;-59
2023/04/01 00:53:53;;;;;;;1.33;1.20;;;17.00;65.80;17.90;98614.00;;;;5007057;28;20187;-57
2023/04/01 00:56:49;;;;;;;1.53;1.03;;;17.00;65.80;17.90;98621.00;;;;5008562;28;20172;-59
2023/04/01 00:59:20;;;;;;;1.97;1.30;;;17.00;65.80;17.90;98612.00;;;;5006901;28;20286;-57
2023/04/01 01:01:46;;;;;;;1.00;0.90;;;16.90;65.70;17.90;98615.00;;;;5007213;28;20290;-60
2023/04/01 01:04:32;;;;;;;1.63;1.40;;;17.00;65.80;17.80;98613.00;;;;5007943;28;20617;-58
2023/04/01 01:07:09;;;;;;;1.10;1.00;;;16.90;65.70;17.80;98602.00;;;;5008093;28;20180;-59
2023/04/01 01:09:54;;;;;;;1.73;1.30;;;16.90;65.70;17.80;98617.00;;;;5006999;28;20586;-58
2023/04/01 01:12:53;;;;;;;1.37;1.27;;;16.90;65.70;17.80;98599.00;;;;4995396;28;20570;-57
2023/04/01 01:15:45;;;;;;;1.43;1.33;;;16.90;65.70;17.80;98601.00;;;;5011305;28;20184;-58
2023/04/01 01:18:37;;;;;;;1.43;0.93;;;16.90;65.70;17.80;98600.00;;;;5009960;28;20306;-58
2023/04/01 01:21:11;;;;;;;1.10;1.00;;;16.80;65.60;17.80;98603.00;;;;5008526;28;20179;-58
2023/04/01 01:24:33;;;;;;;1.10;0.97;;;16.90;65.70;17.80;98603.00;;;;5010051;28;21227;-60
2023/04/01 01:27:13;;;;;;;0.83;0.77;;;16.90;65.70;17.70;98597.00;;;;5011694;28;20198;-59
2023/04/01 01:29:45;;;;;;;1.20;1.10;;;16.90;65.70;17.70;98602.00;;;;5010331;28;20198;-59
2023/04/01 01:32:17;;;;;;;1.00;0.90;;;16.80;65.70;17.70;98602.00;;;;5011224;28;20217;-59
2023/04/01 01:35:02;;;;;;;0.77;0.77;;;16.80;65.60;17.70;98598.00;;;;5010655;28;20202;-58
2023/04/01 01:37:28;;;;;;;1.47;1.13;;;16.80;65.60;17.70;98600.00;;;;5010350;28;20188;-58
2023/04/01 01:40:04;;;;;;;0.70;0.70;;;16.90;65.70;17.70;98593.00;;;;5010318;28;20191;-57
2023/04/01 01:42:31;;;;;;;2.03;1.20;;;16.80;65.60;17.70;98590.00;;;;5009495;28;20698;-57
2023/04/01 01:44:57;;;;;;;1.13;1.00;;;16.80;65.70;17.70;98589.00;;;;5010349;28;20210;-58
2023/04/01 01:47:22;;;;;;;1.20;1.10;;;16.80;65.70;17.70;98594.00;;;;5010348;28;20252;-58
2023/04/01 01:49:48;;;;;;;0.80;0.80;;;16.80;65.70;17.70;98611.00;;;;5009845;28;20262;-57
2023/04/01 01:52:14;;;;;;;0.97;0.90;;;16.80;65.80;17.70;98589.00;;;;5009368;28;20254;-59
2023/04/01 01:54:54;;;;;;;0.67;0.67;;;16.80;65.80;17.70;98601.00;;;;5011277;28;20267;-58
2023/04/01 01:57:31;;;;;;;1.33;1.20;;;16.70;65.70;17.70;98603.00;;;;5010512;28;20232;-59
2023/04/01 02:00:02;;;;;;;0.70;0.70;;;16.80;65.90;17.70;98594.00;;;;5009589;28;20195;-59
2023/04/01 02:02:31;;;;;;;0.80;0.80;;;16.80;65.90;17.40;98592.00;;;;5009220;28;20237;-57
2023/04/01 02:04:56;;;;;;;1.70;1.20;;;16.80;65.90;17.70;98595.00;;;;5009739;28;20577;-57
2023/04/01 02:07:27;;;;;;;1.53;1.10;;;16.80;65.90;17.70;98535.00;;;;5009727;28;20194;-57
2023/04/01 02:09:53;;;;;;;1.47;1.17;;;16.80;66.00;17.60;98596.00;;;;5009215;28;20199;-56
2023/04/01 02:12:18;;;;;;;0.70;0.53;;;16.70;65.80;17.60;98600.00;;;;5008969;28;20286;-55
2023/04/01 02:14:58;;;;;;;1.13;0.90;;;16.70;65.80;17.60;98601.00;;;;5009496;28;20188;-56
2023/04/01 02:17:27;;;;;;;0.90;0.90;;;16.70;65.90;17.60;98589.00;;;;5009715;28;20186;-60
2023/04/01 02:19:59;;;;;;;1.20;1.00;;;16.70;65.80;17.60;98602.00;;;;5009159;28;20203;-57
2023/04/01 02:22:34;;;;;;;1.47;1.20;;;16.70;65.80;17.60;98599.00;;;;5009292;28;20221;-57
2023/04/01 02:25:06;;;;;;;1.23;1.13;;;16.70;65.90;17.60;98608.00;;;;5009576;28;20202;-58
2023/04/01 02:27:32;;;;;;;1.00;1.00;;;16.70;65.80;17.60;98604.00;;;;5009530;28;20271;-59
2023/04/01 02:29:58;;;;;;;0.73;0.73;;;16.70;65.80;17.60;98608.00;;;;5009633;28;20286;-58
2023/04/01 02:32:24;;;;;;;1.13;0.77;;;16.70;65.80;17.60;98594.00;;;;4992055;28;20697;-58
2023/04/01 02:34:49;;;;;;;0.90;0.90;;;16.70;65.90;17.60;98594.00;;;;5009507;28;20250;-58
2023/04/01 02:37:15;;;;;;;0.90;0.90;;;16.60;66.10;17.60;98599.00;;;;5009443;28;20180;-57
2023/04/01 02:39:42;;;;;;;0.93;0.90;;;16.70;66.20;17.60;98599.00;;;;5009200;28;20187;-58
2023/04/01 02:42:08;;;;;;;0.53;0.53;;;16.70;66.10;17.60;98593.00;;;;5010384;28;20203;-60
2023/04/01 02:44:34;;;;;;;1.23;1.13;;;16.70;66.20;17.60;98597.00;;;;4992533;28;20257;-57
2023/04/01 02:46:59;;;;;;;0.70;0.70;;;16.70;66.20;17.60;98602.00;;;;5010504;28;20203;-58
2023/04/01 02:49:25;;;;;;;1.00;0.83;;;16.70;66.30;17.60;98599.00;;;;5010250;28;20214;-56
2023/04/01 02:51:51;;;;;;;0.60;0.60;;;16.70;66.50;17.60;98598.00;;;;5008938;28;20230;-57
2023/04/01 02:54:18;;;;;;;0.87;0.87;;;16.60;66.30;17.60;98591.00;;;;5010059;28;20184;-57
2023/04/01 02:56:43;;;;;;;1.83;0.83;;;16.60;66.50;17.60;98598.00;;;;5010221;28;20188;-57
2023/04/01 02:59:09;;;;;;;0.70;0.70;;;16.60;66.50;17.60;98605.00;;;;5010232;28;20186;-58
2023/04/01 03:01:35;;;;;;;0.73;0.73;;;16.60;66.40;17.50;98601.00;;;;5010079;28;20753;-57
2023/04/01 03:04:01;;;;;;;2.03;1.00;;;16.60;66.50;17.50;98610.00;;;;5010139;28;20250;-57
2023/04/01 03:06:26;;;;;;;0.73;0.73;;;16.60;66.50;17.50;98599.00;;;;5010210;28;20246;-58
2023/04/01 03:08:52;;;;;;;1.20;0.77;;;16.60;66.40;17.50;98599.00;;;;5009979;28;20268;-57
2023/04/01 03:11:18;;;;;;;0.70;0.70;;;16.60;66.40;17.50;98602.00;;;;5009744;28;20253;-56
2023/04/01 03:13:43;;;;;;;1.23;0.90;;;16.60;66.40;17.50;98604.00;;;;5009961;28;20546;-56
2023/04/01 03:16:09;;;;;;;0.67;0.53;;;16.60;66.30;17.50;98601.00;;;;5010090;28;20175;-56
2023/04/01 03:18:35;;;;;;;1.93;0.90;;;16.60;66.40;17.50;98607.00;;;;5009775;28;20223;-57
2023/04/01 03:21:15;;;;;;;1.47;1.00;;;16.60;66.40;17.50;98616.00;;;;5009649;28;20180;-57
2023/04/01 03:23:41;;;;;;;1.20;0.90;;;16.60;66.40;17.50;98597.00;;;;5009484;28;20615;-56
2023/04/01 03:26:07;;;;;;;0.83;0.83;;;16.50;66.30;17.50;98604.00;;;;5009679;28;20194;-56
2023/04/01 03:28:33;;;;;;;0.90;0.90;;;16.60;66.40;17.50;98608.00;;;;5009593;28;20222;-55
2023/04/01 03:30:59;;;;;;;1.67;0.80;;;16.60;67.00;17.40;98616.00;;;;5009694;28;20595;-59
2023/04/01 03:33:24;;;;;;;1.97;0.87;;;16.50;66.80;17.40;98606.00;;;;5009569;28;20196;-56
2023/04/01 03:35:51;;;;;;;2.63;1.20;;;16.60;66.80;17.40;98605.00;;;;5009790;28;20176;-58
2023/04/01 03:38:18;;;;;;;2.40;1.13;;;16.60;66.90;17.50;98611.00;;;;5009436;28;20692;-57
2023/04/01 03:40:44;;;;;;;4.83;1.10;;;16.60;66.80;17.50;98611.00;;;;5009330;28;20181;-55
2023/04/01 03:43:09;;;;;;;2.67;1.00;;;16.60;66.90;17.50;98614.00;;;;5008910;28;20207;-56
2023/04/01 03:45:40;;;;;;;3.77;0.90;;;16.60;66.80;17.50;98617.00;;;;5009378;28;20177;-57
2023/04/01 03:48:06;;;;;;;1.27;0.80;;;16.60;66.80;17.50;98627.00;;;;5007951;28;20172;-57
2023/04/01 03:50:32;;;;;;;1.33;1.07;;;16.60;66.70;17.40;98617.00;;;;5008917;28;20705;-57
2023/04/01 03:52:57;;;;;;;1.20;1.10;;;16.50;66.60;17.10;98566.00;;;;5007364;28;20210;-58
2023/04/01 03:55:23;;;;;;;3.07;1.30;;;16.50;66.60;17.40;98620.00;;;;5009183;28;20195;-57
2023/04/01 03:57:49;;;;;;;1.30;0.80;;;16.50;66.50;17.40;98634.00;;;;5008980;28;20622;-56
2023/04/01 04:00:15;;;;;;;0.57;0.57;;;16.50;66.50;17.40;98627.00;;;;5008937;28;20234;-56
2023/04/01 04:02:40;;;;;;;2.47;1.07;;;16.50;66.40;17.40;98625.00;;;;5008658;28;20199;-57
2023/04/01 04:05:06;;;;;;;1.27;1.00;;;16.50;66.40;17.40;98618.00;;;;5009001;28;20554;-56
2023/04/01 04:07:34;;;;;;;2.80;1.10;;;16.50;66.40;17.40;98629.00;;;;5008922;28;20175;-58
2023/04/01 04:10:00;;;;;;;1.47;0.97;;;16.50;66.50;17.40;98620.00;;;;5008850;28;20591;-57
2023/04/01 04:12:26;;;;;;;2.63;1.13;;;16.50;66.60;17.40;98632.00;;;;5008867;28;20337;-57
2023/04/01 04:14:52;;;;;;;0.60;0.60;;;16.50;66.70;17.40;98636.00;;;;5009202;28;20184;-57
2023/04/01 04:17:17;;;;;;;1.43;0.90;;;16.50;66.70;17.40;98628.00;;;;5009005;28;20183;-58
2023/04/01 04:19:43;;;;;;;3.63;1.20;;;16.40;66.60;17.30;98628.00;;;;5008622;28;20663;-56
2023/04/01 04:22:09;;;;;;;2.00;0.80;;;16.50;66.70;17.30;98635.00;;;;5008647;28;20195;-57
2023/04/01 04:24:35;;;;;;;3.67;1.00;;;16.40;66.60;17.30;98635.00;;;;5008522;28;20191;-57
2023/04/01 04:27:01;;;;;;;0.70;0.70;;;16.40;66.60;17.30;98631.00;;;;5008875;28;20176;-57
2023/04/01 04:29:27;;;;;;;2.03;0.50;;;16.40;66.60;17.30;98641.00;;;;4999762;28;20679;-57
2023/04/01 04:31:53;;;;;;;1.60;0.97;;;16.40;66.60;17.30;98634.00;;;;5007959;28;20227;-56
2023/04/01 04:34:19;;;;;;;2.57;0.93;;;16.40;66.60;17.30;98634.00;;;;5008878;28;20175;-57
2023/04/01 04:36:45;;;;;;;2.93;0.87;;;16.40;66.70;17.30;98633.00;;;;5009437;28;20179;-57
2023/04/01 04:39:11;;;;;;;1.00;0.83;;;16.40;66.70;17.30;98634.00;;;;5009301;28;20183;-55
2023/04/01 04:41:40;;;;;;;1.63;0.93;;;16.40;66.70;17.30;98622.00;;;;5009311;28;20199;-57
2023/04/01 04:44:05;;;;;;;1.57;0.63;;;16.40;66.80;17.30;98629.00;;;;5008912;28;20176;-56
2023/04/01 04:46:31;;;;;;;1.23;0.77;;;16.40;66.90;17.30;98630.00;;;;5009340;28;20274;-59
2023/04/01 04:48:57;;;;;;;0.93;0.73;;;16.40;66.90;17.30;98636.00;;;;5009216;28;20203;-56
2023/04/01 04:51:23;;;;;;;1.23;0.83;;;16.40;67.00;17.30;98633.00;;;;5009236;28;20183;-56
2023/04/01 04:53:49;;;;;;;0.73;0.63;;;16.40;67.00;17.30;98639.00;;;;5008689;28;20175;-57
2023/04/01 04:56:19;;;;;;;2.53;0.97;;;16.30;66.80;17.20;98628.00;;;;5013727;28;20201;-57
2023/04/01 04:58:45;;;;;;;1.80;0.93;;;16.30;66.80;17.20;98631.00;;;;5014226;28;20240;-56
2023/04/01 05:01:13;;;;;;;3.10;1.10;;;16.40;67.00;17.20;98642.00;;;;5006409;28;20184;-54
2023/04/01 05:03:39;;;;;;;1.47;0.83;;;16.30;66.80;17.20;98632.00;;;;5008188;28;20677;-55
2023/04/01 05:06:05;;;;;;;0.90;0.90;;;16.30;66.80;17.20;98642.00;;;;5015058;28;20180;-55
2023/04/01 05:08:32;;;;;;;2.07;1.07;;;16.40;66.90;17.20;98646.00;;;;5015693;28;20175;-55
2023/04/01 05:10:58;;;;;;;3.10;1.00;;;16.30;66.70;17.20;98642.00;;;;5014834;28;20338;-55
2023/04/01 05:13:24;;;;;;;0.67;0.67;;;16.30;66.70;17.20;98570.00;;;;5014856;28;20195;-54
2023/04/01 05:15:50;;;;;;;1.17;0.67;;;16.30;66.70;17.20;98646.00;;;;5014530;28;20722;-55
2023/04/01 05:18:16;;;;;;;0.80;0.80;;;16.30;66.70;17.20;98649.00;;;;5015932;28;20705;-55
2023/04/01 05:20:50;;;;;;;1.00;0.90;;;16.30;66.70;17.20;98647.00;;;;5018335;28;20229;-55
2023/04/01 05:23:16;;;;;;;0.60;0.60;;;16.30;66.70;17.20;98650.00;;;;5014522;28;20199;-55
2023/04/01 05:25:42;;;;;;;0.70;0.70;;;16.30;66.70;17.20;98652.00;;;;5022868;28;20191;-54
2023/04/01 05:28:08;;;;;;;0.80;0.60;;;16.30;66.70;17.20;98652.00;;;;5018209;28;20179;-54
2023/04/01 05:30:33;;;;;;;0.80;0.80;;;16.30;66.70;17.20;98657.00;;;;5014801;28;20686;-55
2023/04/01 05:32:59;;;;;;;1.47;1.00;;;16.30;66.70;17.20;98650.00;;;;5014387;28;20199;-55
2023/04/01 05:35:25;;;;;;;0.97;0.80;;;16.30;66.70;17.20;98655.00;;;;5009477;28;20191;-56
2023/04/01 05:37:50;;;;;;;1.97;0.87;;;16.20;66.60;17.10;98664.00;;;;5012033;28;20254;-54
2023/04/01 05:40:16;;;;;;;0.50;0.50;;;16.20;66.60;17.10;98644.00;;;;5009025;28;20219;-54
2023/04/01 05:42:42;;;;;;;0.97;0.90;;;16.30;66.70;17.10;98662.00;;;;5008252;28;20257;-55
2023/04/01 05:45:09;;;;;;;0.90;0.90;;;16.30;66.70;17.10;98669.00;;;;5009302;28;20191;-55
2023/04/01 05:47:34;;;;;;;0.70;0.70;;;16.20;66.50;17.10;98657.00;;;;5015503;28;20309;-54
2023/04/01 05:50:00;;;;;;;0.60;0.60;;;16.20;66.50;16.70;98675.00;;;;5014558;28;20196;-56
2023/04/01 05:52:26;;;;;;;1.07;0.93;;;16.20;66.50;17.10;98663.00;;;;5014904;28;20227;-54
2023/04/01 05:54:52;;;;;;;0.50;0.50;;;16.20;66.50;17.10;98664.00;;;;5013143;28;20873;-56
2023/04/01 05:57:18;;;;;;;0.73;0.73;;;16.20;66.50;17.10;98665.00;;;;5014367;28;20210;-54
2023/04/01 05:59:44;;;;;;;1.27;1.07;;;16.20;66.60;17.10;98670.00;;;;5013664;28;20258;-55
2023/04/01 06:02:10;;;;;;;0.70;0.70;;;16.20;66.50;17.10;98671.00;;;;5009166;28;20225;-54
2023/04/01 06:04:38;;;;;;;0.70;0.70;;;16.20;66.50;17.10;98679.00;;;;5006250;28;20171;-54
2023/04/01 06:07:14;;;;;;;0.67;0.67;;;16.20;66.50;17.10;98674.00;;;;5006607;28;20645;-54
2023/04/01 06:09:40;;;;;;;1.40;1.20;;;16.20;66.50;17.00;98675.00;;;;5006724;28;20231;-55
2023/04/01 06:13:03;;;;;;;2.20;0.80;;;16.20;66.50;17.10;98681.00;;;;5008590;28;20234;-56
2023/04/01 06:15:55;;;;;;;1.13;0.90;;;16.20;66.50;17.00;98685.00;;;;4997204;28;20188;-55
2023/04/01 06:18:53;;;;;;;0.57;0.50;;;16.20;66.50;17.00;98680.00;;;;5010636;28;20172;-54
2023/04/01 06:22:01;;;;;;;0.90;0.90;;;16.10;66.40;17.00;98682.00;;;;5008535;28;20183;-56
2023/04/01 06:25:03;;;;;;;0.90;0.90;;;16.10;66.40;17.00;98692.00;;;;5011037;28;20841;-54
2023/04/01 06:27:49;;;;;;;0.77;0.77;;;16.10;66.40;17.00;98691.00;;;;5009005;28;20194;-54
2023/04/01 06:30:45;;;;;;;0.70;0.70;;;16.10;66.50;17.00;98700.00;;;;5006062;28;20290;-54
2023/04/01 06:34:06;;;;;;;1.70;0.97;;;16.10;66.50;16.90;98695.00;;;;4989615;28;20262;-55
2023/04/01 06:36:44;;;;;;;1.00;0.90;;;16.10;66.50;16.90;98698.00;;;;5010549;28;20727;-56
2023/04/01 06:39:49;;;;;;;1.47;1.00;;;16.10;66.50;16.90;98698.00;;;;5010596;28;20201;-56
2023/04/01 06:43:30;;;;;;;2.13;0.90;;;16.10;67.00;17.00;98700.00;;;;5475825;22;21108;-52
2023/04/01 06:46:05;;;;;;;1.77;1.17;;;16.10;67.00;16.90;98707.00;;;;5002368;28;20203;-53
2023/04/01 06:49:15;;;;;;;3.30;1.40;;;16.10;67.30;17.00;98703.00;;;;5010244;28;20209;-55
2023/04/01 06:52:02;;;;;;;3.33;1.10;;;16.20;67.40;17.00;98701.00;;;;5010863;28;20263;-56
2023/04/01 06:54:40;;;;;;;3.97;0.93;;;16.30;67.40;17.10;98689.00;;;;4975454;28;20234;-54
2023/04/01 06:57:20;;;;;;;1.83;0.83;;;16.40;67.30;17.10;98699.00;;;;4974762;28;20183;-56
2023/04/01 06:59:46;;;;;;;4.97;1.23;;;16.40;67.10;17.20;98686.00;;;;4971048;28;20174;-55
2023/04/01 07:02:29;;;;;;;2.40;1.00;;;16.60;67.10;17.30;98706.00;;;;4953495;28;20172;-54
2023/04/01 07:04:55;;;;;;;2.83;1.27;;;16.70;66.90;17.40;98707.00;;;;4970430;28;20654;-54
2023/04/01 07:07:43;;;;;;;6.43;1.00;;;16.70;66.80;17.40;98707.00;;;;4986776;28;20227;-56
2023/04/01 07:10:31;;;;;;;1.23;0.90;;;16.90;66.70;17.50;98710.00;;;;4970437;28;20204;-53
2023/04/01 07:12:58;;;;;;;0.57;0.57;;;17.00;66.30;17.60;98712.00;;;;4970041;28;20200;-54
2023/04/01 07:15:33;;;;;;;2.33;0.93;;;17.20;66.40;17.70;98719.00;;;;4970596;28;20165;-54
2023/04/01 07:18:27;;;;;;;1.67;1.10;;;17.30;66.20;17.90;98726.00;;;;4970916;28;20177;-55
2023/04/01 07:20:53;;;;;;;1.10;1.00;;;17.40;66.00;17.90;98715.00;;;;4971803;28;20172;-54
2023/04/01 07:23:29;;;;;;;2.77;1.00;;;17.60;65.90;18.10;98716.00;;;;4972626;28;20553;-54
2023/04/01 07:26:22;;;;;;;0.90;0.90;;;17.70;65.80;18.20;98722.00;;;;4971237;28;20771;-55
2023/04/01 07:28:50;;;;;;;0.77;0.70;;;17.80;65.60;18.20;98728.00;;;;4972249;28;20199;-55
2023/04/01 07:31:39;;;;;;;2.10;1.00;;;17.90;65.50;18.30;98734.00;;;;4987025;28;20727;-55
2023/04/01 07:34:23;;;;;;;1.73;0.77;;;18.00;65.60;18.40;98732.00;;;;4986866;28;20202;-55
2023/04/01 07:37:12;;;;;;;0.77;0.77;;;18.10;65.50;18.50;98727.00;;;;4970886;28;20186;-55
2023/04/01 07:40:06;;;;;;;2.23;0.90;;;18.20;65.40;18.60;98742.00;;;;4970907;28;20655;-55
2023/04/01 07:42:50;;;;;;;1.47;1.03;;;18.30;65.40;18.70;98737.00;;;;4971732;28;20192;-55
2023/04/01 07:45:34;;;;;;;4.27;1.10;;;18.40;65.30;18.80;98733.00;;;;4970673;28;20270;-55
2023/04/01 07:48:12;;;;;;;0.70;0.70;;;18.40;65.30;18.80;98751.00;;;;4971200;28;20252;-55
2023/04/01 07:50:58;;;;;;;1.50;0.87;;;18.50;65.20;18.90;98741.00;;;;4971793;28;20674;-55
2023/04/01 07:53:33;;;;;;;1.20;1.10;;;18.60;65.20;19.00;98761.00;;;;4984443;28;20196;-55
2023/04/01 07:56:22;;;;;;;1.10;0.73;;;18.60;65.20;19.10;98752.00;;;;4970672;28;20172;-54
2023/04/01 07:58:58;;;;;;;0.83;0.80;;;18.70;65.30;19.10;98756.00;;;;4970432;28;20201;-55
2023/04/01 08:01:39;;;;;;;0.93;0.73;;;18.70;65.40;19.20;98754.00;;;;4985682;28;20172;-55
2023/04/01 08:04:44;;;;;;;0.77;0.70;;;18.80;65.30;19.20;98765.00;;;;4970479;28;20201;-56
2023/04/01 08:07:30;;;;;;;0.90;0.70;;;18.80;65.20;19.30;98766.00;;;;4971767;28;20197;-55
2023/04/01 08:10:11;;;;;;;1.00;0.90;;;18.80;65.20;19.30;98767.00;;;;4986604;28;20558;-56
2023/04/01 08:13:01;;;;;;;1.73;0.77;;;18.80;65.30;19.30;98769.00;;;;4985226;28;20221;-56
2023/04/01 08:15:51;;;;;;;0.83;0.73;;;18.90;65.60;19.30;98771.00;;;;4971575;28;20169;-55
2023/04/01 08:18:28;;;;;;;0.47;0.47;;;18.90;65.50;19.30;98781.00;;;;4970218;28;20215;-55
2023/04/01 08:21:02;;;;;;;2.20;0.80;;;18.90;65.60;19.40;98795.00;;;;4986512;28;20540;-55
2023/04/01 08:23:33;;;;;;;0.73;0.67;;;18.90;65.50;19.40;98783.00;;;;4985540;28;20693;-56
2023/04/01 08:26:25;;;;;;;0.80;0.47;;;18.90;65.60;19.50;98781.00;;;;4970122;28;20177;-56
2023/04/01 08:29:21;;;;;;;0.60;0.60;;;18.90;65.60;19.50;98784.00;;;;4983974;28;20203;-56
2023/04/01 08:32:01;;;;;;;0.50;0.50;;;18.90;65.60;19.50;98791.00;;;;4955831;28;20168;-56
2023/04/01 08:34:37;;;;;;;0.80;0.80;;;18.90;65.50;19.50;98794.00;;;;4954197;28;20500;-56
2023/04/01 08:37:11;;;;;;;0.50;0.50;;;18.90;65.60;19.50;98806.00;;;;4954056;28;20615;-55
2023/04/01 08:39:41;;;;;;;0.60;0.60;;;18.90;65.60;19.50;98798.00;;;;4971194;28;20173;-55
2023/04/01 08:42:27;;;;;;;1.03;0.77;;;18.90;65.60;19.60;98794.00;;;;4953739;28;20184;-56
2023/04/01 08:45:30;;;;;;;0.40;0.40;;;18.90;65.50;19.60;98800.00;;;;4970040;28;20267;-55
2023/04/01 08:48:20;;;;;;;0.60;0.60;;;18.90;65.50;19.60;98808.00;;;;4964939;28;20188;-53
2023/04/01 08:51:42;;;;;;;0.50;0.50;;;19.00;65.70;19.60;98811.00;;;;4969732;28;20602;-55
2023/04/01 08:54:19;;;;;;;0.57;0.57;;;19.00;65.80;19.60;98816.00;;;;4929357;29;20241;-55
2023/04/01 08:57:15;;;;;;;0.83;0.70;;;19.00;65.80;19.60;98819.00;;;;4965345;28;20195;-55
2023/04/01 08:59:57;;;;;;;1.23;0.60;;;19.00;65.70;19.70;98823.00;;;;4986015;28;20179;-56
2023/04/01 09:02:49;;;;;;;0.67;0.67;;;19.10;65.70;19.70;98829.00;;;;4985655;28;20238;-55
2023/04/01 09:05:37;;;;;;;0.73;0.73;;;19.20;65.70;19.80;98845.00;;;;4976433;28;20256;-55
2023/04/01 09:08:49;;;;;;;0.87;0.87;;;19.30;65.50;19.80;98831.00;;;;4970812;28;20169;-55
2023/04/01 09:11:40;;;;;;;0.57;0.50;;;19.30;65.30;19.80;98845.00;;;;4981420;28;20192;-55
2023/04/01 09:14:45;;;;;;;0.77;0.70;;;19.40;65.20;19.90;98841.00;;;;4966098;28;20626;-54
2023/04/01 09:17:38;;;;;;;0.80;0.73;;;19.50;65.20;20.00;98850.00;;;;4971096;28;20714;-56
2023/04/01 09:20:28;;;;;;;0.40;0.40;;;19.50;65.00;20.00;98846.00;;;;4970873;28;20188;-54
2023/04/01 09:23:19;;;;;;;0.40;0.40;;;19.60;64.90;20.00;98852.00;;;;4985116;28;20642;-57
2023/04/01 09:26:18;;;;;;;0.80;0.80;;;19.60;64.80;20.10;98865.00;;;;4969552;28;20177;-56
2023/04/01 09:29:05;;;;;;;0.30;0.30;;;19.60;64.70;20.10;98795.00;;;;4982135;28;20668;-56
2023/04/01 09:31:58;;;;;;;0.93;0.60;;;19.70;64.80;20.10;98861.00;;;;4970501;28;20183;-56
2023/04/01 09:34:51;;;;;;;0.57;0.57;;;19.70;64.80;20.20;98864.00;;;;4970412;28;20173;-55
2023/04/01 09:37:52;;;;;;;0.50;0.50;;;19.70;64.80;20.20;98871.00;;;;4983649;28;20767;-56
2023/04/01 09:40:43;;;;;;;0.40;0.40;;;19.70;64.80;20.20;98865.00;;;;4970333;28;20304;-55
2023/04/01 09:43:28;;;;;;;0.63;0.63;;;19.70;64.90;20.20;98877.00;;;;4956601;28;20189;-54
2023/04/01 09:46:19;;;;;;;0.47;0.47;;;19.70;64.80;20.20;98864.00;;;;4974006;28;20231;-55
2023/04/01 09:49:18;;;;;;;0.77;0.77;;;19.70;64.90;20.20;98873.00;;;;4972854;28;20184;-56
2023/04/01 09:52:09;;;;;;;0.50;0.50;;;19.70;64.90;20.30;98874.00;;;;4974133;28;20173;-56
2023/04/01 09:55:13;;;;;;;0.60;0.60;;;19.70;65.00;20.20;98878.00;;;;4986762;28;20177;-56
2023/04/01 09:58:07;;;;;;;0.70;0.70;;;19.70;65.00;20.30;98892.00;;;;4986764;28;20260;-55
2023/04/01 10:01:18;;;;;;;0.70;0.70;;;19.60;65.00;20.30;98895.00;;;;4988255;28;20227;-54
2023/04/01 10:04:24;;;;;;;0.83;0.80;;;19.60;65.10;20.20;98889.00;;;;4989883;28;20197;-58
2023/04/01 10:07:36;;;;;;;0.60;0.60;;;19.60;65.30;20.20;98903.00;;;;4975232;28;20304;-58
2023/04/01 10:10:38;;;;;;;0.80;0.80;;;19.60;65.30;20.20;98902.00;;;;5003308;28;20484;-58
2023/04/01 10:13:46;;;;;;;2.00;1.10;;;19.60;65.30;20.20;98910.00;;;;4992260;28;20195;-59
2023/04/01 10:16:33;;;;;;;0.60;0.60;;;19.60;65.20;20.20;98908.00;;;;4989911;28;20836;-58
2023/04/01 10:19:17;;;;;;;0.93;0.83;;;19.60;65.30;20.20;98921.00;;;;4984370;28;20264;-59
2023/04/01 10:22:23;;;;;;;0.70;0.70;;;19.50;65.40;20.20;98918.00;;;;4983189;28;20184;-58
2023/04/01 10:25:32;;;;;;;1.00;1.00;;;19.50;65.50;20.20;98925.00;;;;4984280;28;20276;-59
2023/04/01 10:28:12;;;;;;;0.70;0.70;;;19.50;65.70;20.20;98906.00;;;;4980972;28;20168;-59
2023/04/01 10:31:07;;;;;;;0.60;0.60;;;19.50;65.80;20.20;98926.00;;;;4987035;28;20207;-59
2023/04/01 10:34:19;;;;;;;0.60;0.60;;;19.50;65.80;20.10;98929.00;;;;4951070;28;20263;-58
2023/04/01 10:36:56;;;;;;;0.87;0.87;;;19.50;66.00;20.10;98927.00;;;;4988352;28;20177;-57
2023/04/01 10:39:37;;;;;;;0.77;0.77;;;19.40;66.00;20.10;98921.00;;;;4989919;28;20650;-57
2023/04/01 10:42:50;;;;;;;1.17;1.00;;;19.40;66.00;20.10;98929.00;;;;4991828;28;20222;-59
2023/04/01 10:45:34;;;;;;;1.90;0.97;;;19.40;66.10;20.10;98931.00;;;;4991168;28;20606;-58
2023/04/01 10:48:44;;;;;;;1.50;1.07;;;19.40;66.30;20.10;98935.00;;;;4987943;28;20180;-59
2023/04/01 10:51:59;;;;;;;1.10;1.00;;;19.30;66.40;20.00;98939.00;;;;4978115;28;20189;-58
2023/04/01 10:54:50;;;;;;;1.10;0.93;;;19.30;66.30;20.00;98938.00;;;;4983521;28;20169;-58
2023/04/01 10:57:54;;;;;;;2.20;1.10;;;19.30;66.10;20.00;98936.00;;;;4971318;28;20204;-58
2023/04/01 11:00:52;;;;;;;1.40;0.90;;;19.20;66.00;20.00;98929.00;;;;4992786;28;20282;-58
2023/04/01 11:03:27;;;;;;;1.07;0.90;;;19.20;66.10;19.90;98941.00;;;;4981379;28;20863;-58
2023/04/01 11:06:37;;;;;;;0.83;0.80;;;19.20;66.20;19.90;98939.00;;;;4975036;28;20657;-59
2023/04/01 11:09:09;;;;;;;0.77;0.77;;;19.20;66.40;19.90;98950.00;;;;4952733;28;20205;-60
2023/04/01 11:12:15;;;;;;;1.30;1.10;;;19.20;66.60;19.90;98939.00;;;;4988512;28;20180;-58
2023/04/01 11:14:56;;;;;;;0.70;0.53;;;19.10;66.80;19.90;98949.00;;;;4990655;28;20700;-58
2023/04/01 11:17:41;;;;;;;1.07;0.97;;;19.10;66.90;19.80;98936.00;;;;4988700;28;20180;-58
2023/04/01 11:20:42;;;;;;;2.27;1.30;;;19.10;67.00;19.80;98939.00;;;;4985921;28;20172;-58
2023/04/01 11:23:14;;;;;;;2.33;1.10;;;19.10;67.00;19.80;98956.00;;;;4987046;28;20650;-59
2023/04/01 11:26:06;;;;;;;1.10;1.00;;;19.10;67.30;19.80;98968.00;;;;4992272;28;20172;-60
2023/04/01 11:28:54;;;;;;;2.80;1.00;;;19.10;67.40;19.80;98950.00;;;;4983405;28;20188;-59
2023/04/01 11:31:46;;;;;;;4.23;1.27;;;19.00;67.30;19.80;98961.00;;;;4976765;28;20187;-60
2023/04/01 11:34:46;;;;;;;4.47;1.00;;;19.00;67.30;19.70;98962.00;;;;4977149;28;20915;-59
2023/04/01 11:37:33;;;;;;;1.07;0.97;;;19.00;67.50;19.70;98971.00;;;;4992347;28;20263;-59
2023/04/01 11:40:38;;;;;;;1.70;0.80;;;19.00;67.60;19.70;98959.00;;;;4987344;28;20173;-57
2023/04/01 11:43:15;;;;;;;2.67;1.10;;;19.00;68.00;19.70;98978.00;;;;4972436;28;20226;-57
2023/04/01 11:45:49;;;;;;;1.23;0.93;;;18.90;67.80;19.70;98969.00;;;;4970995;28;20193;-59